createdAt,value
2022-11-02T00:01:24.021Z,11.34
2022-11-02T00:03:50.680Z,11.25
2022-11-02T00:06:17.515Z,11.21
2022-11-02T00:08:43.983Z,11.40
2022-11-02T00:11:10.542Z,11.35
2022-11-02T00:13:37.038Z,11.29
2022-11-02T00:16:07.473Z,11.28
2022-11-02T00:18:35.788Z,11.27
2022-11-02T00:21:02.289Z,11.25
2022-11-02T00:23:30.337Z,11.24
2022-11-02T00:26:01.923Z,11.14
2022-11-02T00:28:29.181Z,11.09
2022-11-02T00:30:55.632Z,11.21
2022-11-02T00:33:22.129Z,11.11
2022-11-02T00:35:48.637Z,11.14
2022-11-02T00:38:15.098Z,11.14
2022-11-02T00:40:41.545Z,11.18
2022-11-02T00:43:07.992Z,11.22
2022-11-02T00:45:34.557Z,11.00
2022-11-02T00:48:01.608Z,10.96
2022-11-02T00:50:28.263Z,10.87
2022-11-02T00:52:54.697Z,10.77
2022-11-02T00:55:21.574Z,10.79
2022-11-02T00:57:48.630Z,10.68
2022-11-02T01:00:15.542Z,10.69
2022-11-02T01:02:42.357Z,10.74
2022-11-02T01:05:10.505Z,10.64
2022-11-02T01:07:37.553Z,10.67
2022-11-02T01:10:08.391Z,10.66
2022-11-02T01:12:37.681Z,10.71
2022-11-02T01:15:05.959Z,10.63
2022-11-02T01:17:32.528Z,10.62
2022-11-02T01:19:59.246Z,10.41
2022-11-02T01:22:25.661Z,10.40
2022-11-02T01:24:52.083Z,10.37
2022-11-02T01:27:18.569Z,10.35
2022-11-02T01:29:44.993Z,10.42
2022-11-02T01:32:11.397Z,10.55
2022-11-02T01:34:38.753Z,10.57
2022-11-02T01:37:05.183Z,10.52
2022-11-02T01:39:31.584Z,10.63
2022-11-02T01:41:58.016Z,10.60
2022-11-02T01:44:29.361Z,10.56
2022-11-02T01:47:01.483Z,10.60
2022-11-02T01:49:31.010Z,10.58
2022-11-02T01:52:05.166Z,10.72
2022-11-02T01:54:38.031Z,11.03
2022-11-02T01:57:08.230Z,10.86
2022-11-02T01:59:40.530Z,10.86
2022-11-02T02:02:14.153Z,10.90
2022-11-02T02:04:41.399Z,10.91
2022-11-02T02:07:08.035Z,10.90
2022-11-02T02:09:34.977Z,10.90
2022-11-02T02:12:01.413Z,10.92
2022-11-02T02:14:27.978Z,11.03
2022-11-02T02:17:24.686Z,11.04
2022-11-02T02:20:01.688Z,11.15
2022-11-02T02:22:40.199Z,11.21
2022-11-02T02:25:06.535Z,11.19
2022-11-02T02:28:01.249Z,11.22
2022-11-02T02:30:31.994Z,11.29
2022-11-02T02:33:07.047Z,11.34
2022-11-02T02:35:37.918Z,11.28
2022-11-02T02:38:14.700Z,11.17
2022-11-02T02:41:11.034Z,11.07
2022-11-02T02:43:46.656Z,10.74
2022-11-02T02:46:21.462Z,10.60
2022-11-02T02:48:50.166Z,10.51
2022-11-02T02:51:22.504Z,10.49
2022-11-02T02:53:57.801Z,10.47
2022-11-02T02:56:30.251Z,10.34
2022-11-02T02:59:01.216Z,10.24
2022-11-02T03:01:28.297Z,10.16
2022-11-02T03:03:55.017Z,10.16
2022-11-02T03:06:26.087Z,10.21
2022-11-02T03:09:13.744Z,10.29
2022-11-02T03:11:55.380Z,10.36
2022-11-02T03:14:38.289Z,10.50
2022-11-02T03:17:17.804Z,10.47
2022-11-02T03:19:56.395Z,10.50
2022-11-02T03:22:35.096Z,10.40
2022-11-02T03:25:13.657Z,10.49
2022-11-02T03:27:53.297Z,10.39
2022-11-02T03:30:22.781Z,10.28
2022-11-02T03:33:04.354Z,10.24
2022-11-02T03:35:43.220Z,10.30
2022-11-02T03:38:22.261Z,10.31
2022-11-02T03:40:52.129Z,10.17
2022-11-02T03:43:21.253Z,10.14
2022-11-02T03:45:52.758Z,10.10
2022-11-02T03:48:21.441Z,10.20
2022-11-02T03:50:52.113Z,10.18
2022-11-02T03:53:31.637Z,10.21
2022-11-02T03:56:06.862Z,10.27
2022-11-02T03:58:33.508Z,10.20
2022-11-02T04:01:05.706Z,10.20
2022-11-02T04:03:33.693Z,10.18
2022-11-02T04:06:00.313Z,10.09
2022-11-02T04:08:48.077Z,10.09
2022-11-02T04:11:34.187Z,10.20
2022-11-02T04:14:19.522Z,10.22
2022-11-02T04:16:45.997Z,10.37
2022-11-02T04:19:27.487Z,10.37
2022-11-02T04:22:13.415Z,10.54
2022-11-02T04:24:58.418Z,10.47
2022-11-02T04:27:24.958Z,10.51
2022-11-02T04:29:51.444Z,10.44
2022-11-02T04:32:37.888Z,10.44
2022-11-02T04:35:05.598Z,10.41
2022-11-02T04:37:56.178Z,10.49
2022-11-02T04:40:22.620Z,10.53
2022-11-02T04:42:49.007Z,10.45
2022-11-02T04:45:15.502Z,10.63
2022-11-02T04:47:41.990Z,10.58
2022-11-02T04:50:09.058Z,10.61
2022-11-02T04:52:35.486Z,10.52
2022-11-02T04:55:01.890Z,10.53
2022-11-02T04:57:28.331Z,10.61
2022-11-02T04:59:54.887Z,10.57
2022-11-02T05:02:21.465Z,10.56
2022-11-02T05:04:47.976Z,10.64
2022-11-02T05:07:14.692Z,10.57
2022-11-02T05:09:43.953Z,10.52
2022-11-02T05:12:10.379Z,10.62
2022-11-02T05:14:36.852Z,10.49
2022-11-02T05:17:03.430Z,10.50
2022-11-02T05:19:29.839Z,10.56
2022-11-02T05:21:56.243Z,10.48
2022-11-02T05:24:22.620Z,10.33
2022-11-02T05:26:52.936Z,10.27
2022-11-02T05:29:20.494Z,10.16
2022-11-02T05:31:46.889Z,10.18
2022-11-02T05:34:13.467Z,10.17
2022-11-02T05:36:39.941Z,10.08
2022-11-02T05:39:06.349Z,10.10
2022-11-02T05:41:33.092Z,10.22
2022-11-02T05:43:59.570Z,10.19
2022-11-02T05:46:26.193Z,10.27
2022-11-02T05:48:52.619Z,10.41
2022-11-02T05:51:19.045Z,10.31
2022-11-02T05:53:45.448Z,10.31
2022-11-02T05:56:12.151Z,10.30
2022-11-02T05:58:38.734Z,10.34
2022-11-02T06:01:07.179Z,10.19
2022-11-02T06:03:33.680Z,10.20
2022-11-02T06:06:07.764Z,10.14
2022-11-02T06:08:35.908Z,10.16
2022-11-02T06:11:07.015Z,10.08
2022-11-02T06:13:33.453Z,10.21
2022-11-02T06:16:00.913Z,10.23
2022-11-02T06:18:27.764Z,10.29
2022-11-02T06:20:56.555Z,10.28
2022-11-02T06:23:22.956Z,10.38
2022-11-02T06:25:57.460Z,10.35
2022-11-02T06:28:24.506Z,10.48
2022-11-02T06:30:52.008Z,10.44
2022-11-02T06:33:19.896Z,10.46
2022-11-02T06:35:48.015Z,10.61
2022-11-02T06:38:15.376Z,10.63
2022-11-02T06:40:42.093Z,10.59
2022-11-02T06:43:16.415Z,10.67
2022-11-02T06:45:43.798Z,10.56
2022-11-02T06:48:10.375Z,10.64
2022-11-02T06:50:36.783Z,10.68
2022-11-02T06:53:03.755Z,10.67
2022-11-02T06:55:30.451Z,10.69
2022-11-02T06:57:56.941Z,10.76
2022-11-02T07:00:24.135Z,10.84
2022-11-02T07:03:06.793Z,10.84
2022-11-02T07:05:34.473Z,10.80
2022-11-02T07:08:00.903Z,10.74
2022-11-02T07:10:28.126Z,10.77
2022-11-02T07:12:56.149Z,10.90
2022-11-02T07:15:24.292Z,10.94
2022-11-02T07:17:51.509Z,10.95
2022-11-02T07:20:18.382Z,10.95
2022-11-02T07:22:55.980Z,10.89
2022-11-02T07:25:23.024Z,10.91
2022-11-02T07:27:49.518Z,10.94
2022-11-02T07:30:16.161Z,11.08
2022-11-02T07:32:43.904Z,11.04
2022-11-02T07:35:12.293Z,11.06
2022-11-02T07:37:38.980Z,11.08
2022-11-02T07:40:07.659Z,11.18
2022-11-02T07:42:34.252Z,11.17
2022-11-02T07:45:00.666Z,11.21
2022-11-02T07:47:27.494Z,11.05
2022-11-02T07:49:53.984Z,11.14
2022-11-02T07:52:20.377Z,11.10
2022-11-02T07:54:47.060Z,11.21
2022-11-02T07:57:13.482Z,11.24
2022-11-02T07:59:39.923Z,11.24
2022-11-02T08:02:06.441Z,11.28
2022-11-02T08:04:33.322Z,11.25
2022-11-02T08:06:59.780Z,11.32
2022-11-02T08:09:26.833Z,11.32
2022-11-02T08:11:53.342Z,11.38
2022-11-02T08:14:19.772Z,11.61
2022-11-02T08:16:48.067Z,11.68
2022-11-02T08:19:14.472Z,11.70
2022-11-02T08:21:40.882Z,11.74
2022-11-02T08:24:07.786Z,11.86
2022-11-02T08:26:34.193Z,11.93
2022-11-02T08:29:01.834Z,11.91
2022-11-02T08:31:28.687Z,12.04
2022-11-02T08:33:55.247Z,12.06
2022-11-02T08:36:21.689Z,12.08
2022-11-02T08:38:48.181Z,12.21
2022-11-02T08:41:14.648Z,12.07
2022-11-02T08:43:41.159Z,11.95
2022-11-02T08:46:16.468Z,11.79
2022-11-02T08:48:43.569Z,11.88
2022-11-02T08:51:10.188Z,12.08
2022-11-02T08:53:36.689Z,12.17
2022-11-02T08:56:03.186Z,12.39
2022-11-02T08:58:29.715Z,12.38
2022-11-02T09:00:56.532Z,12.34
2022-11-02T09:03:27.017Z,12.35
2022-11-02T09:05:59.481Z,12.22
2022-11-02T09:08:27.765Z,12.17
2022-11-02T09:10:59.263Z,12.16
2022-11-02T09:13:25.817Z,11.76
2022-11-02T09:15:54.852Z,11.59
2022-11-02T09:18:22.249Z,11.40
2022-11-02T09:20:48.999Z,11.42
2022-11-02T09:23:20.370Z,11.42
2022-11-02T09:25:48.212Z,11.40
2022-11-02T09:28:15.601Z,11.56
2022-11-02T09:30:42.693Z,11.79
2022-11-02T09:33:10.138Z,11.80
2022-11-02T09:35:39.206Z,11.96
2022-11-02T09:38:06.006Z,11.95
2022-11-02T09:40:38.791Z,11.87
2022-11-02T09:43:08.546Z,11.59
2022-11-02T09:45:42.126Z,11.63
2022-11-02T09:48:23.308Z,11.71
2022-11-02T09:51:01.977Z,11.82
2022-11-02T09:53:50.532Z,11.57
2022-11-02T09:56:19.852Z,11.50
2022-11-02T09:58:54.831Z,11.52
2022-11-02T10:01:59.732Z,11.33
2022-11-02T10:04:32.067Z,11.23
2022-11-02T10:07:12.450Z,11.29
2022-11-02T10:09:42.221Z,11.35
2022-11-02T10:12:13.148Z,11.41
2022-11-02T10:14:49.606Z,11.57
2022-11-02T10:17:24.363Z,11.75
2022-11-02T10:20:03.664Z,11.72
2022-11-02T10:22:39.077Z,11.68
2022-11-02T10:25:07.476Z,11.58
2022-11-02T10:27:36.927Z,11.29
2022-11-02T10:30:20.223Z,10.95
2022-11-02T10:32:55.847Z,10.81
2022-11-02T10:35:57.612Z,10.64
2022-11-02T10:38:48.774Z,10.71
2022-11-02T10:41:21.719Z,10.93
2022-11-02T10:44:14.247Z,11.37
2022-11-02T10:47:00.181Z,12.14
2022-11-02T10:49:58.457Z,12.32
2022-11-02T10:52:26.132Z,12.46
2022-11-02T10:54:53.201Z,12.24
2022-11-02T10:57:23.672Z,12.40
2022-11-02T11:00:25.491Z,12.11
2022-11-02T11:03:07.497Z,12.07
2022-11-02T11:05:37.508Z,11.83
2022-11-02T11:08:05.275Z,11.77
2022-11-02T11:10:38.154Z,11.99
2022-11-02T11:13:05.663Z,11.64
2022-11-02T11:15:49.701Z,11.56
2022-11-02T11:21:06.967Z,11.31
2022-11-02T11:23:33.569Z,11.32
2022-11-02T11:26:17.056Z,10.93
2022-11-02T11:28:55.163Z,11.02
2022-11-02T11:31:22.433Z,11.04
2022-11-02T11:33:53.654Z,10.93
2022-11-02T11:38:59.774Z,10.94
2022-11-02T11:41:27.102Z,10.69
2022-11-02T11:43:54.211Z,10.63
2022-11-02T11:46:20.960Z,10.55
2022-11-02T11:48:56.100Z,10.40
2022-11-02T11:51:29.971Z,10.22
2022-11-02T11:54:16.998Z,9.95
2022-11-02T11:56:43.795Z,9.68
2022-11-02T11:59:44.031Z,9.49
2022-11-02T12:02:27.513Z,9.47
2022-11-02T12:05:07.574Z,9.49
2022-11-02T12:08:02.351Z,9.56
2022-11-02T12:10:53.610Z,9.54
2022-11-02T12:13:48.844Z,9.51
2022-11-02T12:16:30.088Z,9.49
2022-11-02T12:19:34.259Z,9.51
2022-11-02T12:22:29.414Z,9.42
2022-11-02T12:25:04.977Z,9.41
2022-11-02T12:27:41.592Z,9.28
2022-11-02T12:30:16.918Z,9.26
2022-11-02T12:32:58.465Z,9.17
2022-11-02T12:35:29.791Z,9.16
2022-11-02T12:38:18.489Z,9.15
2022-11-02T12:40:44.830Z,9.09
2022-11-02T12:43:31.990Z,9.16
2022-11-02T12:46:08.978Z,9.14
2022-11-02T12:49:00.104Z,9.24
2022-11-02T12:51:37.085Z,9.33
2022-11-02T12:54:20.761Z,9.34
2022-11-02T12:56:53.216Z,9.41
2022-11-02T12:59:22.425Z,9.56
2022-11-02T13:01:52.860Z,9.70
2022-11-02T13:04:36.989Z,9.54
2022-11-02T13:07:12.049Z,9.50
2022-11-02T13:09:52.143Z,9.42
2022-11-02T13:12:24.364Z,9.35
2022-11-02T13:14:54.556Z,9.22
2022-11-02T13:17:33.138Z,9.04
2022-11-02T13:20:07.164Z,8.93
2022-11-02T13:22:38.225Z,8.83
2022-11-02T13:25:31.438Z,8.87
2022-11-02T13:28:05.702Z,8.87
2022-11-02T13:30:33.716Z,8.82
2022-11-02T13:33:23.654Z,8.97
2022-11-02T13:35:51.613Z,8.96
2022-11-02T13:38:51.389Z,8.94
2022-11-02T13:41:43.332Z,8.92
2022-11-02T13:44:45.601Z,8.95
2022-11-02T13:47:21.129Z,9.08
2022-11-02T13:49:53.409Z,9.23
2022-11-02T13:52:28.397Z,9.38
2022-11-02T13:55:01.082Z,9.29
2022-11-02T13:57:40.327Z,9.53
2022-11-02T14:00:29.654Z,9.85
2022-11-02T14:03:11.815Z,10.05
2022-11-02T14:05:47.065Z,10.60
2022-11-02T14:08:25.551Z,11.49
2022-11-02T14:11:23.013Z,11.00
2022-11-02T14:13:55.679Z,10.68
2022-11-02T14:16:43.707Z,10.12
2022-11-02T14:19:19.520Z,10.03
2022-11-02T14:21:49.838Z,10.19
2022-11-02T14:24:34.694Z,10.39
2022-11-02T14:27:24.510Z,10.87
2022-11-02T14:29:55.754Z,11.35
2022-11-02T14:32:34.512Z,10.69
2022-11-02T14:35:28.126Z,10.10
2022-11-02T14:38:39.111Z,9.92
2022-11-02T14:41:17.723Z,9.83
2022-11-02T14:44:17.861Z,9.55
2022-11-02T14:47:07.768Z,9.62
2022-11-02T14:49:39.291Z,9.55
2022-11-02T14:52:17.152Z,9.71
2022-11-02T14:54:50.753Z,10.13
2022-11-02T14:57:28.330Z,11.19
2022-11-02T14:59:57.858Z,11.44
2022-11-02T15:02:31.235Z,11.19
2022-11-02T15:05:00.899Z,10.48
2022-11-02T15:07:42.074Z,10.09
2022-11-02T15:10:17.605Z,9.89
2022-11-02T15:12:46.768Z,9.69
2022-11-02T15:15:35.688Z,9.57
2022-11-02T15:18:23.340Z,9.58
2022-11-02T15:21:11.604Z,9.56
2022-11-02T15:23:50.285Z,9.64
2022-11-02T15:26:23.986Z,9.63
2022-11-02T15:28:51.596Z,9.38
2022-11-02T15:31:25.625Z,9.32
2022-11-02T15:33:58.959Z,9.31
2022-11-02T15:36:39.790Z,9.36
2022-11-02T15:39:08.896Z,9.30
2022-11-02T15:42:04.457Z,9.22
2022-11-02T15:44:51.399Z,9.09
2022-11-02T15:47:41.970Z,9.20
2022-11-02T15:50:35.750Z,9.29
2022-11-02T15:53:22.178Z,9.22
2022-11-02T15:56:07.229Z,9.33
2022-11-02T15:58:42.749Z,9.26
2022-11-02T16:01:19.110Z,9.24
2022-11-02T16:03:51.957Z,9.20
2022-11-02T16:06:26.628Z,9.30
2022-11-02T16:08:53.345Z,9.28
2022-11-02T16:11:20.540Z,9.25
2022-11-02T16:14:09.501Z,9.24
2022-11-02T16:16:45.361Z,9.29
2022-11-02T16:19:21.638Z,9.31
2022-11-02T16:21:49.968Z,9.41
2022-11-02T16:24:17.280Z,9.37
2022-11-02T16:26:46.007Z,9.37
2022-11-02T16:29:22.957Z,9.31
2022-11-02T16:31:49.569Z,9.34
2022-11-02T16:34:22.554Z,9.38
2022-11-02T16:36:49.337Z,9.41
2022-11-02T16:39:19.074Z,9.58
2022-11-02T16:41:51.147Z,9.60
2022-11-02T16:44:21.731Z,9.48
2022-11-02T16:47:16.746Z,9.63
2022-11-02T16:49:52.172Z,9.63
2022-11-02T16:52:29.987Z,9.73
2022-11-02T16:54:56.659Z,9.43
2022-11-02T16:57:43.548Z,9.40
2022-11-02T17:00:19.956Z,9.45
2022-11-02T17:02:47.435Z,9.41
2022-11-02T17:05:26.004Z,9.55
2022-11-02T17:08:05.682Z,9.47
2022-11-02T17:10:34.586Z,9.52
2022-11-02T17:13:01.900Z,9.56
2022-11-02T17:15:32.180Z,9.49
2022-11-02T17:18:21.927Z,9.39
2022-11-02T17:21:08.972Z,9.40
2022-11-02T17:23:36.521Z,9.39
2022-11-02T17:26:21.724Z,9.26
2022-11-02T17:29:26.688Z,9.37
2022-11-02T17:31:56.573Z,9.21
2022-11-02T17:34:23.202Z,9.18
2022-11-02T17:36:50.659Z,9.18
2022-11-02T17:39:19.394Z,9.23
2022-11-02T17:42:15.161Z,9.29
2022-11-02T17:44:42.169Z,9.24
2022-11-02T17:47:13.410Z,9.07
2022-11-02T17:49:39.889Z,9.12
2022-11-02T17:52:06.814Z,9.00
2022-11-02T17:54:33.228Z,9.01
2022-11-02T17:57:01.623Z,8.98
2022-11-02T17:59:27.963Z,8.83
2022-11-02T18:01:54.498Z,8.87
2022-11-02T18:04:21.030Z,8.83
2022-11-02T18:06:47.422Z,8.82
2022-11-02T18:09:18.828Z,8.72
2022-11-02T18:11:46.154Z,8.70
2022-11-02T18:14:16.717Z,8.58
2022-11-02T18:16:44.609Z,8.44
2022-11-02T18:19:11.680Z,8.45
2022-11-02T18:21:38.242Z,8.41
2022-11-02T18:24:05.098Z,8.36
2022-11-02T18:26:31.625Z,8.35
2022-11-02T18:28:58.310Z,8.36
2022-11-02T18:31:24.815Z,8.38
2022-11-02T18:33:52.777Z,8.30
2022-11-02T18:36:19.629Z,8.24
2022-11-02T18:38:46.245Z,8.23
2022-11-02T18:41:27.788Z,8.14
2022-11-02T18:44:02.214Z,8.11
2022-11-02T18:46:31.026Z,8.10
2022-11-02T18:48:58.120Z,8.02
2022-11-02T18:51:25.371Z,8.13
2022-11-02T18:54:00.940Z,7.97
2022-11-02T18:56:27.878Z,8.03
2022-11-02T18:58:55.366Z,7.92
2022-11-02T19:01:23.973Z,7.96
2022-11-02T19:03:52.942Z,8.01
2022-11-02T19:06:39.126Z,7.97
2022-11-02T19:09:19.188Z,7.83
2022-11-02T19:11:56.536Z,7.83
2022-11-02T19:14:24.099Z,7.85
2022-11-02T19:16:50.577Z,7.83
2022-11-02T19:19:17.122Z,7.82
2022-11-02T19:21:43.622Z,7.76
2022-11-02T19:24:10.346Z,7.72
2022-11-02T19:26:37.546Z,7.69
2022-11-02T19:29:06.439Z,7.70
2022-11-02T19:31:34.513Z,7.71
2022-11-02T19:34:01.017Z,7.60
2022-11-02T19:36:27.623Z,7.54
2022-11-02T19:38:54.189Z,7.54
2022-11-02T19:41:21.710Z,7.41
2022-11-02T19:43:48.109Z,7.37
2022-11-02T19:46:17.151Z,7.45
2022-11-02T19:48:43.920Z,7.36
2022-11-02T19:51:19.057Z,7.47
2022-11-02T19:53:51.828Z,7.39
2022-11-02T19:56:19.481Z,7.40
2022-11-02T19:58:48.967Z,7.34
2022-11-02T20:01:27.461Z,7.44
2022-11-02T20:03:54.883Z,7.52
2022-11-02T20:06:36.490Z,7.54
2022-11-02T20:09:07.019Z,7.62
2022-11-02T20:11:33.821Z,7.63
2022-11-02T20:14:02.856Z,7.58
2022-11-02T20:16:29.750Z,7.50
2022-11-02T20:18:56.586Z,7.61
2022-11-02T20:21:31.655Z,7.62
2022-11-02T20:24:00.421Z,7.60
2022-11-02T20:26:33.113Z,7.58
2022-11-02T20:29:01.440Z,7.52
2022-11-02T20:31:29.171Z,7.61
2022-11-02T20:33:55.820Z,7.59
2022-11-02T20:36:22.378Z,7.65
2022-11-02T20:38:49.295Z,7.75
2022-11-02T20:41:18.929Z,7.64
2022-11-02T20:43:47.462Z,7.67
2022-11-02T20:46:36.517Z,7.73
2022-11-02T20:49:13.844Z,7.63
2022-11-02T20:51:48.441Z,7.59
2022-11-02T20:54:14.946Z,7.54
2022-11-02T20:56:41.356Z,7.49
2022-11-02T20:59:07.764Z,7.60
2022-11-02T21:01:34.981Z,7.47
2022-11-02T21:04:01.894Z,7.61
2022-11-02T21:06:28.497Z,7.49
2022-11-02T21:08:54.950Z,7.43
2022-11-02T21:11:40.125Z,7.52
2022-11-02T21:14:06.710Z,7.47
2022-11-02T21:16:33.999Z,7.59
2022-11-02T21:19:00.561Z,7.54
2022-11-02T21:21:27.087Z,7.61
2022-11-02T21:23:55.108Z,7.57
2022-11-02T21:26:21.889Z,7.50
2022-11-02T21:28:48.367Z,7.58
2022-11-02T21:31:17.531Z,7.48
2022-11-02T21:33:45.657Z,7.38
2022-11-02T21:36:13.596Z,7.28
2022-11-02T21:38:40.656Z,7.34
2022-11-02T21:41:08.608Z,7.31
2022-11-02T21:43:36.950Z,7.23
2022-11-02T21:46:04.193Z,7.37
2022-11-02T21:48:32.929Z,7.30
2022-11-02T21:51:04.682Z,7.25
2022-11-02T21:53:32.791Z,7.28
2022-11-02T21:56:01.566Z,7.27
2022-11-02T21:58:28.751Z,7.32
2022-11-02T22:01:23.064Z,7.32
2022-11-02T22:03:51.140Z,7.46
2022-11-02T22:06:18.189Z,7.47
2022-11-02T22:08:44.633Z,7.56
2022-11-02T22:11:13.699Z,7.55
2022-11-02T22:13:41.116Z,7.56
2022-11-02T22:16:29.417Z,7.55
2022-11-02T22:18:58.565Z,7.48
2022-11-02T22:21:27.026Z,7.57
2022-11-02T22:23:53.902Z,7.55
2022-11-02T22:26:22.628Z,7.63
2022-11-02T22:28:49.910Z,7.53
2022-11-02T22:31:17.601Z,7.52
2022-11-02T22:33:45.683Z,7.67
2022-11-02T22:36:14.695Z,7.66
2022-11-02T22:38:51.527Z,7.65
2022-11-02T22:41:24.909Z,7.77
2022-11-02T22:43:53.732Z,7.63
2022-11-02T22:46:20.859Z,7.72
2022-11-02T22:48:47.285Z,7.78
2022-11-02T22:51:14.093Z,7.72
2022-11-02T22:53:40.681Z,7.71
2022-11-02T22:56:14.695Z,7.75
2022-11-02T22:58:43.593Z,7.71
2022-11-02T23:01:22.128Z,7.70
2022-11-02T23:03:48.948Z,7.79
2022-11-02T23:06:16.902Z,7.72
2022-11-02T23:08:45.787Z,7.68
2022-11-02T23:11:23.263Z,7.64
2022-11-02T23:13:58.906Z,7.72
2022-11-02T23:16:26.800Z,7.75
2022-11-02T23:19:29.646Z,7.71
2022-11-02T23:22:26.381Z,7.74
2022-11-02T23:25:12.154Z,7.60
2022-11-02T23:28:17.642Z,7.67
2022-11-02T23:31:02.607Z,7.68
2022-11-02T23:33:33.759Z,7.68
2022-11-02T23:36:13.624Z,7.66
2022-11-02T23:39:17.005Z,7.48
2022-11-02T23:41:43.443Z,7.48
2022-11-02T23:44:13.976Z,7.43
2022-11-02T23:46:40.393Z,7.53
2022-11-02T23:49:07.001Z,7.44
2022-11-02T23:51:52.419Z,7.41
2022-11-02T23:54:37.581Z,7.35
2022-11-02T23:57:04.127Z,7.36
2022-11-02T23:59:30.608Z,7.35
